SBILSBSV

Guest
Details From SBIL - Ilheus
To SBSV - Salvador Bahia Deputado Luis Eduardo M
Flight Number -
Tags Generated
Created
Modified
Stats Distance 122 nm / 225 km
Max Altitude 0 ft / 0 m
Waypoints 2
Social Downloads 2
Likes 0
Share VATSIM

Download

Looking for another format? Having issues loading an existing format? Contact us
Advertisement - Login to hide

Notes

Generated

Route

SBIL SBSV

ID Type Via Altitude Latitude Longitude Leg Dist Tot Dist Heading (true) Name
O SBIL APT - 0 ft / 0 m -14.81617˚ -39.04046˚ - 0 nm - -
O SBSV APT - 0 ft / 0 m -12.90821˚ -38.34316˚ 121 nm 121 nm 20° / 19° -

Altitude Profile

Advertisement - Login to hide

SBIL

Details ICAO SBIL (IOS)
Name Ilheus
Region Brazil
Timezone America/Bahia (UTC-3.0)
Stats Elevation 15 ft / 5 m (AMSL)
Location -14.815964° -39.033197°
Runways 1
Magnetic Variation 23.700° W

METAR

SBIL 230500Z 27003KT 8000 -RA FEW015 SCT020 FEW025TCU 23/23 Q1016

Decode

TAF

TAF SBIL 222200Z 2300/2312 22005KT 8000 SCT017 TX27/2300Z TN23/2307Z TEMPO 2301/2304 5000 SHRA SCT010 FEW030TCU TEMPO 2308/2311 5000 SHRA SCT010 SCT020 RMK PEA

Decode

Departure Runways

ID Width Length Bearing (true) Bearing (mag) Surface Threshold Offset Overrun Length
11 148 ft / 45 m 5,127 ft / 1,563 m 88.35° 112.05° Asphalt 0 ft / 0 m 190 ft / 58 m
29 148 ft / 45 m 5,127 ft / 1,563 m 268.34° 292.04° Asphalt 0 ft / 0 m 160 ft / 49 m

SBSV

Details ICAO SBSV (SSA)
Name Salvador Bahia Deputado Luis Eduardo M
Region Brazil
Timezone America/Bahia (UTC-3.0)
Stats Elevation 64 ft / 20 m (AMSL)
Location -12.910994° -38.331043°
Runways 2
Magnetic Variation 23.445° W

METAR

SBSV 230500Z 15004KT 9999 BKN020 27/24 Q1015

Decode

TAF

TAF SBSV 222200Z 2300/2324 12007KT 8000 SCT020 TN25/2308Z TX30/2315Z TEMPO 2310/2313 5000 SHRA BKN020 FEW022TCU RMK PEA

Decode

Destination Runways

ID Width Length Bearing (true) Bearing (mag) Surface Threshold Offset Overrun Length
10 148 ft / 45 m 9,845 ft / 3,001 m 78.32° 101.77° Asphalt 0 ft / 0 m 205 ft / 62 m
17 148 ft / 45 m 5,014 ft / 1,528 m 144.04° 167.49° Asphalt 0 ft / 0 m 0 ft / 0 m
28 148 ft / 45 m 9,845 ft / 3,001 m 258.31° 281.76° Asphalt 0 ft / 0 m 205 ft / 62 m
35 148 ft / 45 m 5,014 ft / 1,528 m 324.04° 347.49° Asphalt 0 ft / 0 m 0 ft / 0 m

Approach Navaids

Runway Type Ident Frequency Range Bearing (true) Bearing (mag) Slope Elevation
10 Localiser ISV 109.30 MHz 18 nm / 33 km 78.41° 101.85° - 29 ft / 9 m (AMSL)
10 Glidescope ISV 109.30 MHz 10 nm / 19 km 78.32° 101.76° 2.88° 29 ft / 9 m (AMSL)

Popular Alternatives